EGCK

Caernarfon Airport

Caernarfon, United Kingdom
METAR EGCK 191820Z AUTO 22022KT 9999 FEW030/// 14/09 Q1009
Observed Flight Rules
Sep-19 @ 18:20 UTC (27 minutes ago) Visual Flight Rules
Wind Visibility Clouds
220° at 22 knots 10,000+ meters
  • Few at 3,000' AGL
Temperatures Readings
Current 14°C / 57°F
Dewpoint 9°C / 48°F
Humidity 72%
Altimeter 29.79" Hg
Pressure 1009 hPa
Elevation 0
METAR EGCK 191820Z AUTO 22022KT 9999 FEW030/// 14/09 Q1009
Observed Flight Rules
Sep-19 @ 18:20 UTC
(27 minutes ago)
VFR
Wind Visibility
220° at 22 knots 10,000+ meters
Clouds
  • Few at 3,000' AGL
Temperature Dewpoint
14°C / 57°F 9°C / 48°F
Humidity Altimeter Pressure
72% 29.79" Hg 1009 hPa